sensor_id;sensor_type;location;lat;lon;timestamp;P1;durP1;ratioP1;P2;durP2;ratioP2
53401;SDS011;39295;45.534;20.034;2023-04-24T00:00:16;14.90;;;5.55;;
53401;SDS011;39295;45.534;20.034;2023-04-24T00:02:43;8.13;;;5.63;;
53401;SDS011;39295;45.534;20.034;2023-04-24T00:05:16;15.30;;;6.32;;
53401;SDS011;39295;45.534;20.034;2023-04-24T00:07:45;8.82;;;5.60;;
53401;SDS011;39295;45.534;20.034;2023-04-24T00:13:29;8.35;;;5.80;;
53401;SDS011;39295;45.534;20.034;2023-04-24T00:15:55;13.48;;;5.47;;
53401;SDS011;39295;45.534;20.034;2023-04-24T00:18:21;6.65;;;5.10;;
53401;SDS011;39295;45.534;20.034;2023-04-24T00:20:47;10.15;;;5.53;;
53401;SDS011;39295;45.534;20.034;2023-04-24T00:23:13;11.38;;;5.60;;
53401;SDS011;39295;45.534;20.034;2023-04-24T00:25:39;9.55;;;5.55;;
53401;SDS011;39295;45.534;20.034;2023-04-24T00:28:05;8.55;;;5.38;;
53401;SDS011;39295;45.534;20.034;2023-04-24T00:30:32;11.52;;;6.38;;
53401;SDS011;39295;45.534;20.034;2023-04-24T00:32:58;9.05;;;6.05;;
53401;SDS011;39295;45.534;20.034;2023-04-24T00:35:24;8.85;;;6.20;;
53401;SDS011;39295;45.534;20.034;2023-04-24T00:37:50;9.00;;;5.78;;
53401;SDS011;39295;45.534;20.034;2023-04-24T00:40:34;7.65;;;5.85;;
53401;SDS011;39295;45.534;20.034;2023-04-24T00:43:00;10.73;;;6.40;;
53401;SDS011;39295;45.534;20.034;2023-04-24T00:45:26;9.88;;;6.30;;
53401;SDS011;39295;45.534;20.034;2023-04-24T00:47:53;9.75;;;5.85;;
53401;SDS011;39295;45.534;20.034;2023-04-24T00:50:19;10.07;;;6.22;;
53401;SDS011;39295;45.534;20.034;2023-04-24T00:52:46;9.00;;;5.38;;
53401;SDS011;39295;45.534;20.034;2023-04-24T00:58:16;8.90;;;5.53;;
53401;SDS011;39295;45.534;20.034;2023-04-24T01:00:42;8.25;;;5.78;;
53401;SDS011;39295;45.534;20.034;2023-04-24T01:03:08;10.30;;;6.30;;
53401;SDS011;39295;45.534;20.034;2023-04-24T01:05:35;10.95;;;6.00;;
53401;SDS011;39295;45.534;20.034;2023-04-24T01:08:02;9.88;;;5.68;;
53401;SDS011;39295;45.534;20.034;2023-04-24T01:13:32;9.32;;;5.68;;
53401;SDS011;39295;45.534;20.034;2023-04-24T01:15:58;10.38;;;5.82;;
53401;SDS011;39295;45.534;20.034;2023-04-24T01:18:25;11.65;;;5.88;;
53401;SDS011;39295;45.534;20.034;2023-04-24T01:20:53;8.20;;;5.82;;
53401;SDS011;39295;45.534;20.034;2023-04-24T01:23:19;10.38;;;6.18;;
53401;SDS011;39295;45.534;20.034;2023-04-24T01:25:45;7.93;;;5.80;;
53401;SDS011;39295;45.534;20.034;2023-04-24T01:28:12;9.23;;;6.07;;
53401;SDS011;39295;45.534;20.034;2023-04-24T01:30:39;8.95;;;6.20;;
53401;SDS011;39295;45.534;20.034;2023-04-24T01:33:05;7.55;;;5.80;;
53401;SDS011;39295;45.534;20.034;2023-04-24T01:35:31;10.55;;;5.82;;
53401;SDS011;39295;45.534;20.034;2023-04-24T01:37:57;10.00;;;6.03;;
53401;SDS011;39295;45.534;20.034;2023-04-24T01:40:23;12.52;;;6.10;;
53401;SDS011;39295;45.534;20.034;2023-04-24T01:42:49;8.98;;;5.80;;
53401;SDS011;39295;45.534;20.034;2023-04-24T01:45:16;10.00;;;6.15;;
53401;SDS011;39295;45.534;20.034;2023-04-24T01:47:42;9.23;;;6.07;;
53401;SDS011;39295;45.534;20.034;2023-04-24T01:50:09;10.45;;;5.88;;
53401;SDS011;39295;45.534;20.034;2023-04-24T01:52:36;10.10;;;6.30;;
53401;SDS011;39295;45.534;20.034;2023-04-24T01:55:02;10.57;;;6.15;;
53401;SDS011;39295;45.534;20.034;2023-04-24T01:57:29;8.45;;;5.65;;
53401;SDS011;39295;45.534;20.034;2023-04-24T01:59:55;7.65;;;5.80;;
53401;SDS011;39295;45.534;20.034;2023-04-24T02:02:21;10.32;;;5.75;;
53401;SDS011;39295;45.534;20.034;2023-04-24T02:04:49;9.45;;;5.88;;
53401;SDS011;39295;45.534;20.034;2023-04-24T02:07:15;9.60;;;5.97;;
53401;SDS011;39295;45.534;20.034;2023-04-24T02:09:41;14.15;;;5.85;;
53401;SDS011;39295;45.534;20.034;2023-04-24T02:12:07;9.90;;;5.85;;
53401;SDS011;39295;45.534;20.034;2023-04-24T02:14:33;8.10;;;6.00;;
53401;SDS011;39295;45.534;20.034;2023-04-24T02:17:00;7.90;;;5.82;;
53401;SDS011;39295;45.534;20.034;2023-04-24T02:19:26;14.65;;;6.20;;
53401;SDS011;39295;45.534;20.034;2023-04-24T02:21:52;11.98;;;5.70;;
53401;SDS011;39295;45.534;20.034;2023-04-24T02:24:18;16.63;;;6.25;;
53401;SDS011;39295;45.534;20.034;2023-04-24T02:26:44;12.57;;;6.32;;
53401;SDS011;39295;45.534;20.034;2023-04-24T02:29:10;10.20;;;6.45;;
53401;SDS011;39295;45.534;20.034;2023-04-24T02:31:36;10.98;;;6.13;;
53401;SDS011;39295;45.534;20.034;2023-04-24T02:34:02;11.48;;;6.68;;
53401;SDS011;39295;45.534;20.034;2023-04-24T02:36:28;13.13;;;6.60;;
53401;SDS011;39295;45.534;20.034;2023-04-24T02:42:12;9.80;;;6.25;;
53401;SDS011;39295;45.534;20.034;2023-04-24T02:44:38;11.45;;;6.45;;
53401;SDS011;39295;45.534;20.034;2023-04-24T02:47:04;12.10;;;7.05;;
53401;SDS011;39295;45.534;20.034;2023-04-24T02:49:30;11.43;;;6.88;;
53401;SDS011;39295;45.534;20.034;2023-04-24T02:51:56;9.93;;;6.85;;
53401;SDS011;39295;45.534;20.034;2023-04-24T02:57:25;13.40;;;8.07;;
53401;SDS011;39295;45.534;20.034;2023-04-24T02:59:51;10.25;;;7.25;;
53401;SDS011;39295;45.534;20.034;2023-04-24T03:02:17;10.48;;;8.07;;
53401;SDS011;39295;45.534;20.034;2023-04-24T03:04:43;14.25;;;7.75;;
53401;SDS011;39295;45.534;20.034;2023-04-24T03:07:09;10.73;;;7.68;;
53401;SDS011;39295;45.534;20.034;2023-04-24T03:16:10;11.85;;;7.60;;
53401;SDS011;39295;45.534;20.034;2023-04-24T03:18:36;11.00;;;7.28;;
53401;SDS011;39295;45.534;20.034;2023-04-24T03:21:02;13.50;;;7.78;;
53401;SDS011;39295;45.534;20.034;2023-04-24T03:23:28;13.30;;;8.00;;
53401;SDS011;39295;45.534;20.034;2023-04-24T03:28:58;15.63;;;7.53;;
53401;SDS011;39295;45.534;20.034;2023-04-24T03:31:24;9.80;;;7.28;;
53401;SDS011;39295;45.534;20.034;2023-04-24T03:33:50;15.23;;;7.65;;
53401;SDS011;39295;45.534;20.034;2023-04-24T03:36:16;12.23;;;7.47;;
53401;SDS011;39295;45.534;20.034;2023-04-24T03:38:44;10.93;;;7.43;;
53401;SDS011;39295;45.534;20.034;2023-04-24T03:41:10;8.85;;;6.82;;
53401;SDS011;39295;45.534;20.034;2023-04-24T03:43:36;9.93;;;7.35;;
53401;SDS011;39295;45.534;20.034;2023-04-24T03:46:03;11.27;;;7.75;;
53401;SDS011;39295;45.534;20.034;2023-04-24T03:48:29;10.90;;;7.30;;
53401;SDS011;39295;45.534;20.034;2023-04-24T03:50:55;10.70;;;7.20;;
53401;SDS011;39295;45.534;20.034;2023-04-24T03:53:21;14.05;;;7.32;;
53401;SDS011;39295;45.534;20.034;2023-04-24T03:58:51;13.85;;;7.15;;
53401;SDS011;39295;45.534;20.034;2023-04-24T04:01:17;9.80;;;7.35;;
53401;SDS011;39295;45.534;20.034;2023-04-24T04:03:45;11.88;;;6.82;;
53401;SDS011;39295;45.534;20.034;2023-04-24T04:06:11;10.32;;;7.13;;
53401;SDS011;39295;45.534;20.034;2023-04-24T04:08:38;9.75;;;7.63;;
53401;SDS011;39295;45.534;20.034;2023-04-24T04:11:04;10.93;;;7.35;;
53401;SDS011;39295;45.534;20.034;2023-04-24T04:13:30;10.38;;;6.97;;
53401;SDS011;39295;45.534;20.034;2023-04-24T04:15:56;12.50;;;7.30;;
53401;SDS011;39295;45.534;20.034;2023-04-24T04:18:22;10.35;;;7.20;;
53401;SDS011;39295;45.534;20.034;2023-04-24T04:20:48;10.48;;;6.63;;
53401;SDS011;39295;45.534;20.034;2023-04-24T04:23:14;12.73;;;7.43;;
53401;SDS011;39295;45.534;20.034;2023-04-24T04:25:40;11.02;;;7.10;;
53401;SDS011;39295;45.534;20.034;2023-04-24T04:28:06;14.00;;;8.07;;
53401;SDS011;39295;45.534;20.034;2023-04-24T04:30:32;12.38;;;7.05;;
53401;SDS011;39295;45.534;20.034;2023-04-24T04:32:59;10.65;;;7.20;;
53401;SDS011;39295;45.534;20.034;2023-04-24T04:35:25;9.55;;;7.30;;
53401;SDS011;39295;45.534;20.034;2023-04-24T04:37:51;10.48;;;7.22;;
53401;SDS011;39295;45.534;20.034;2023-04-24T04:40:17;16.48;;;7.60;;
53401;SDS011;39295;45.534;20.034;2023-04-24T04:42:43;11.30;;;7.35;;
53401;SDS011;39295;45.534;20.034;2023-04-24T04:45:11;11.23;;;7.38;;
53401;SDS011;39295;45.534;20.034;2023-04-24T04:47:37;11.48;;;7.43;;
53401;SDS011;39295;45.534;20.034;2023-04-24T04:50:04;9.48;;;7.93;;
53401;SDS011;39295;45.534;20.034;2023-04-24T04:52:30;11.63;;;7.75;;
53401;SDS011;39295;45.534;20.034;2023-04-24T04:54:57;10.68;;;7.55;;
53401;SDS011;39295;45.534;20.034;2023-04-24T04:57:23;12.85;;;7.28;;
53401;SDS011;39295;45.534;20.034;2023-04-24T04:59:49;12.10;;;6.82;;
53401;SDS011;39295;45.534;20.034;2023-04-24T05:02:15;11.95;;;7.18;;
53401;SDS011;39295;45.534;20.034;2023-04-24T05:04:41;10.43;;;7.35;;
53401;SDS011;39295;45.534;20.034;2023-04-24T05:07:07;13.07;;;8.35;;
53401;SDS011;39295;45.534;20.034;2023-04-24T05:09:33;10.35;;;7.88;;
53401;SDS011;39295;45.534;20.034;2023-04-24T05:11:59;14.48;;;8.60;;
53401;SDS011;39295;45.534;20.034;2023-04-24T05:14:27;12.93;;;9.02;;
53401;SDS011;39295;45.534;20.034;2023-04-24T05:16:53;12.88;;;9.27;;
53401;SDS011;39295;45.534;20.034;2023-04-24T05:19:19;12.38;;;8.35;;
53401;SDS011;39295;45.534;20.034;2023-04-24T05:21:45;12.65;;;8.52;;
53401;SDS011;39295;45.534;20.034;2023-04-24T05:24:11;13.25;;;9.85;;
53401;SDS011;39295;45.534;20.034;2023-04-24T05:29:54;13.65;;;8.57;;
53401;SDS011;39295;45.534;20.034;2023-04-24T05:32:20;14.30;;;8.00;;
53401;SDS011;39295;45.534;20.034;2023-04-24T05:34:46;11.73;;;7.95;;
53401;SDS011;39295;45.534;20.034;2023-04-24T05:37:13;11.93;;;7.85;;
53401;SDS011;39295;45.534;20.034;2023-04-24T05:39:39;11.40;;;8.75;;
53401;SDS011;39295;45.534;20.034;2023-04-24T05:42:06;12.93;;;7.90;;
53401;SDS011;39295;45.534;20.034;2023-04-24T05:44:32;16.23;;;8.55;;
53401;SDS011;39295;45.534;20.034;2023-04-24T05:46:58;9.05;;;7.13;;
53401;SDS011;39295;45.534;20.034;2023-04-24T05:49:25;10.48;;;7.85;;
53401;SDS011;39295;45.534;20.034;2023-04-24T05:51:51;11.23;;;7.63;;
53401;SDS011;39295;45.534;20.034;2023-04-24T05:54:17;11.73;;;8.43;;
53401;SDS011;39295;45.534;20.034;2023-04-24T05:56:44;11.60;;;8.35;;
53401;SDS011;39295;45.534;20.034;2023-04-24T05:59:10;11.63;;;7.78;;
53401;SDS011;39295;45.534;20.034;2023-04-24T06:01:36;13.38;;;9.23;;
53401;SDS011;39295;45.534;20.034;2023-04-24T06:04:03;14.30;;;9.70;;
53401;SDS011;39295;45.534;20.034;2023-04-24T06:06:29;16.02;;;10.98;;
53401;SDS011;39295;45.534;20.034;2023-04-24T06:08:56;14.27;;;10.02;;
53401;SDS011;39295;45.534;20.034;2023-04-24T06:11:23;19.15;;;10.27;;
53401;SDS011;39295;45.534;20.034;2023-04-24T06:13:49;14.20;;;9.70;;
53401;SDS011;39295;45.534;20.034;2023-04-24T06:16:17;16.92;;;9.43;;
53401;SDS011;39295;45.534;20.034;2023-04-24T06:18:43;17.30;;;9.55;;
53401;SDS011;39295;45.534;20.034;2023-04-24T06:21:10;11.65;;;9.10;;
53401;SDS011;39295;45.534;20.034;2023-04-24T06:23:36;13.13;;;9.32;;
53401;SDS011;39295;45.534;20.034;2023-04-24T06:29:06;15.27;;;10.60;;
53401;SDS011;39295;45.534;20.034;2023-04-24T06:31:32;14.68;;;10.07;;
53401;SDS011;39295;45.534;20.034;2023-04-24T06:34:02;13.60;;;9.88;;
53401;SDS011;39295;45.534;20.034;2023-04-24T06:36:28;14.43;;;10.05;;
53401;SDS011;39295;45.534;20.034;2023-04-24T06:38:54;17.50;;;12.30;;
53401;SDS011;39295;45.534;20.034;2023-04-24T06:41:20;17.25;;;12.05;;
53401;SDS011;39295;45.534;20.034;2023-04-24T06:43:46;15.75;;;10.70;;
53401;SDS011;39295;45.534;20.034;2023-04-24T06:46:12;14.13;;;10.45;;
53401;SDS011;39295;45.534;20.034;2023-04-24T06:48:39;14.57;;;9.80;;
53401;SDS011;39295;45.534;20.034;2023-04-24T06:51:05;12.10;;;8.93;;
53401;SDS011;39295;45.534;20.034;2023-04-24T06:53:31;13.23;;;9.82;;
53401;SDS011;39295;45.534;20.034;2023-04-24T06:55:57;12.80;;;9.52;;
53401;SDS011;39295;45.534;20.034;2023-04-24T06:58:24;11.52;;;9.07;;
53401;SDS011;39295;45.534;20.034;2023-04-24T07:00:50;10.43;;;9.00;;
53401;SDS011;39295;45.534;20.034;2023-04-24T07:03:16;14.60;;;8.93;;
53401;SDS011;39295;45.534;20.034;2023-04-24T07:05:42;12.20;;;8.70;;
53401;SDS011;39295;45.534;20.034;2023-04-24T07:08:08;16.67;;;9.52;;
53401;SDS011;39295;45.534;20.034;2023-04-24T07:10:36;12.43;;;9.98;;
53401;SDS011;39295;45.534;20.034;2023-04-24T07:13:02;15.40;;;9.45;;
53401;SDS011;39295;45.534;20.034;2023-04-24T07:15:29;13.02;;;9.98;;
53401;SDS011;39295;45.534;20.034;2023-04-24T07:17:55;16.65;;;10.63;;
53401;SDS011;39295;45.534;20.034;2023-04-24T07:20:21;12.43;;;9.48;;
53401;SDS011;39295;45.534;20.034;2023-04-24T07:22:47;17.40;;;10.02;;
53401;SDS011;39295;45.534;20.034;2023-04-24T07:25:14;14.02;;;10.80;;
53401;SDS011;39295;45.534;20.034;2023-04-24T07:27:40;16.92;;;10.77;;
53401;SDS011;39295;45.534;20.034;2023-04-24T07:30:06;20.45;;;13.18;;
53401;SDS011;39295;45.534;20.034;2023-04-24T07:32:33;16.95;;;11.48;;
53401;SDS011;39295;45.534;20.034;2023-04-24T07:35:00;20.52;;;11.10;;
53401;SDS011;39295;45.534;20.034;2023-04-24T07:37:26;16.13;;;10.80;;
53401;SDS011;39295;45.534;20.034;2023-04-24T07:45:59;22.60;;;11.80;;
53401;SDS011;39295;45.534;20.034;2023-04-24T07:48:25;14.85;;;11.65;;
53401;SDS011;39295;45.534;20.034;2023-04-24T07:50:51;17.45;;;12.00;;
53401;SDS011;39295;45.534;20.034;2023-04-24T07:53:17;16.50;;;11.13;;
53401;SDS011;39295;45.534;20.034;2023-04-24T07:55:44;19.80;;;14.38;;
53401;SDS011;39295;45.534;20.034;2023-04-24T07:58:10;16.85;;;11.70;;
53401;SDS011;39295;45.534;20.034;2023-04-24T08:00:36;16.83;;;12.65;;
53401;SDS011;39295;45.534;20.034;2023-04-24T08:03:02;21.13;;;13.48;;
53401;SDS011;39295;45.534;20.034;2023-04-24T08:05:28;21.13;;;14.20;;
53401;SDS011;39295;45.534;20.034;2023-04-24T08:07:54;14.07;;;11.30;;
53401;SDS011;39295;45.534;20.034;2023-04-24T08:10:22;14.88;;;11.57;;
53401;SDS011;39295;45.534;20.034;2023-04-24T08:12:48;15.88;;;11.15;;
53401;SDS011;39295;45.534;20.034;2023-04-24T08:15:14;16.65;;;11.45;;
53401;SDS011;39295;45.534;20.034;2023-04-24T08:17:40;19.15;;;10.93;;
53401;SDS011;39295;45.534;20.034;2023-04-24T08:20:06;18.17;;;11.23;;
53401;SDS011;39295;45.534;20.034;2023-04-24T08:22:38;21.75;;;12.55;;
53401;SDS011;39295;45.534;20.034;2023-04-24T08:25:04;15.93;;;12.07;;
53401;SDS011;39295;45.534;20.034;2023-04-24T08:27:30;19.58;;;12.98;;
53401;SDS011;39295;45.534;20.034;2023-04-24T08:29:56;19.20;;;13.63;;
53401;SDS011;39295;45.534;20.034;2023-04-24T08:32:23;23.27;;;14.45;;
53401;SDS011;39295;45.534;20.034;2023-04-24T08:34:50;22.42;;;15.52;;
53401;SDS011;39295;45.534;20.034;2023-04-24T08:37:17;15.00;;;12.95;;
53401;SDS011;39295;45.534;20.034;2023-04-24T08:39:43;18.88;;;12.82;;
53401;SDS011;39295;45.534;20.034;2023-04-24T08:42:25;15.63;;;12.13;;
53401;SDS011;39295;45.534;20.034;2023-04-24T08:44:52;19.35;;;12.35;;
53401;SDS011;39295;45.534;20.034;2023-04-24T08:47:18;17.00;;;12.73;;
53401;SDS011;39295;45.534;20.034;2023-04-24T08:49:46;20.23;;;13.10;;
53401;SDS011;39295;45.534;20.034;2023-04-24T08:52:13;17.42;;;13.68;;
53401;SDS011;39295;45.534;20.034;2023-04-24T08:54:39;18.40;;;13.63;;
53401;SDS011;39295;45.534;20.034;2023-04-24T08:57:08;20.73;;;15.18;;
53401;SDS011;39295;45.534;20.034;2023-04-24T08:59:36;20.92;;;16.10;;
53401;SDS011;39295;45.534;20.034;2023-04-24T09:02:03;24.13;;;16.08;;
53401;SDS011;39295;45.534;20.034;2023-04-24T09:04:30;33.13;;;20.75;;
53401;SDS011;39295;45.534;20.034;2023-04-24T09:06:57;20.42;;;14.20;;
53401;SDS011;39295;45.534;20.034;2023-04-24T09:09:24;18.13;;;13.07;;
53401;SDS011;39295;45.534;20.034;2023-04-24T09:11:50;18.45;;;14.10;;
53401;SDS011;39295;45.534;20.034;2023-04-24T09:14:18;18.95;;;14.60;;
53401;SDS011;39295;45.534;20.034;2023-04-24T09:16:45;17.30;;;12.98;;
53401;SDS011;39295;45.534;20.034;2023-04-24T09:19:12;15.93;;;13.52;;
53401;SDS011;39295;45.534;20.034;2023-04-24T09:21:38;19.23;;;14.40;;
53401;SDS011;39295;45.534;20.034;2023-04-24T09:24:06;16.17;;;13.70;;
53401;SDS011;39295;45.534;20.034;2023-04-24T09:26:34;18.63;;;12.55;;
53401;SDS011;39295;45.534;20.034;2023-04-24T09:29:00;18.23;;;12.90;;
53401;SDS011;39295;45.534;20.034;2023-04-24T09:31:27;22.50;;;12.57;;
53401;SDS011;39295;45.534;20.034;2023-04-24T09:36:31;16.77;;;12.88;;
53401;SDS011;39295;45.534;20.034;2023-04-24T09:39:01;19.75;;;13.15;;
53401;SDS011;39295;45.534;20.034;2023-04-24T09:41:27;14.68;;;12.23;;
53401;SDS011;39295;45.534;20.034;2023-04-24T09:43:57;19.00;;;12.95;;
53401;SDS011;39295;45.534;20.034;2023-04-24T09:46:29;16.63;;;12.35;;
53401;SDS011;39295;45.534;20.034;2023-04-24T09:49:02;17.20;;;12.60;;
53401;SDS011;39295;45.534;20.034;2023-04-24T09:51:34;17.27;;;12.73;;
53401;SDS011;39295;45.534;20.034;2023-04-24T09:54:24;14.48;;;12.20;;
53401;SDS011;39295;45.534;20.034;2023-04-24T09:56:50;18.35;;;12.52;;
53401;SDS011;39295;45.534;20.034;2023-04-24T09:59:17;17.55;;;12.07;;
53401;SDS011;39295;45.534;20.034;2023-04-24T10:01:44;20.02;;;12.40;;
53401;SDS011;39295;45.534;20.034;2023-04-24T10:06:43;18.45;;;13.65;;
53401;SDS011;39295;45.534;20.034;2023-04-24T10:09:09;17.77;;;14.38;;
53401;SDS011;39295;45.534;20.034;2023-04-24T10:14:42;19.45;;;14.93;;
53401;SDS011;39295;45.534;20.034;2023-04-24T10:17:08;19.92;;;14.70;;
53401;SDS011;39295;45.534;20.034;2023-04-24T10:19:34;24.83;;;15.98;;
53401;SDS011;39295;45.534;20.034;2023-04-24T10:22:01;22.63;;;16.08;;
53401;SDS011;39295;45.534;20.034;2023-04-24T10:24:27;21.75;;;13.85;;
53401;SDS011;39295;45.534;20.034;2023-04-24T10:26:54;21.77;;;15.57;;
53401;SDS011;39295;45.534;20.034;2023-04-24T10:29:22;25.90;;;17.45;;
53401;SDS011;39295;45.534;20.034;2023-04-24T10:31:48;29.08;;;19.60;;
53401;SDS011;39295;45.534;20.034;2023-04-24T10:34:14;25.17;;;19.98;;
53401;SDS011;39295;45.534;20.034;2023-04-24T10:36:42;29.88;;;20.75;;
53401;SDS011;39295;45.534;20.034;2023-04-24T10:39:11;21.90;;;17.75;;
53401;SDS011;39295;45.534;20.034;2023-04-24T10:41:37;24.75;;;17.67;;
53401;SDS011;39295;45.534;20.034;2023-04-24T10:44:11;18.85;;;15.85;;
53401;SDS011;39295;45.534;20.034;2023-04-24T10:46:38;17.02;;;15.02;;
53401;SDS011;39295;45.534;20.034;2023-04-24T10:49:05;18.17;;;15.57;;
53401;SDS011;39295;45.534;20.034;2023-04-24T10:51:53;18.67;;;15.00;;
53401;SDS011;39295;45.534;20.034;2023-04-24T10:56:49;19.90;;;15.13;;
53401;SDS011;39295;45.534;20.034;2023-04-24T10:59:25;21.17;;;14.90;;
53401;SDS011;39295;45.534;20.034;2023-04-24T11:01:53;18.58;;;15.10;;
53401;SDS011;39295;45.534;20.034;2023-04-24T11:04:29;18.27;;;14.68;;
53401;SDS011;39295;45.534;20.034;2023-04-24T11:06:56;17.45;;;13.55;;
53401;SDS011;39295;45.534;20.034;2023-04-24T11:09:22;16.23;;;12.98;;
53401;SDS011;39295;45.534;20.034;2023-04-24T11:11:51;16.13;;;13.45;;
53401;SDS011;39295;45.534;20.034;2023-04-24T11:14:28;16.52;;;14.13;;
53401;SDS011;39295;45.534;20.034;2023-04-24T11:16:54;22.92;;;16.42;;
53401;SDS011;39295;45.534;20.034;2023-04-24T11:19:24;28.23;;;18.63;;
53401;SDS011;39295;45.534;20.034;2023-04-24T11:22:00;28.05;;;20.60;;
53401;SDS011;39295;45.534;20.034;2023-04-24T11:27:18;19.83;;;16.45;;
53401;SDS011;39295;45.534;20.034;2023-04-24T11:34:54;20.75;;;15.90;;
53401;SDS011;39295;45.534;20.034;2023-04-24T11:37:21;22.02;;;16.02;;
53401;SDS011;39295;45.534;20.034;2023-04-24T11:39:50;21.75;;;15.18;;
53401;SDS011;39295;45.534;20.034;2023-04-24T11:42:16;21.45;;;15.77;;
53401;SDS011;39295;45.534;20.034;2023-04-24T11:44:42;22.08;;;16.60;;
53401;SDS011;39295;45.534;20.034;2023-04-24T11:47:09;20.42;;;16.50;;
53401;SDS011;39295;45.534;20.034;2023-04-24T11:49:37;19.48;;;15.75;;
53401;SDS011;39295;45.534;20.034;2023-04-24T11:52:04;19.63;;;15.45;;
53401;SDS011;39295;45.534;20.034;2023-04-24T11:54:30;17.05;;;15.23;;
53401;SDS011;39295;45.534;20.034;2023-04-24T11:56:56;20.33;;;16.35;;
53401;SDS011;39295;45.534;20.034;2023-04-24T11:59:23;18.63;;;15.65;;
53401;SDS011;39295;45.534;20.034;2023-04-24T12:01:49;21.15;;;16.80;;
53401;SDS011;39295;45.534;20.034;2023-04-24T12:04:17;18.52;;;15.02;;
53401;SDS011;39295;45.534;20.034;2023-04-24T12:07:00;18.65;;;16.05;;
53401;SDS011;39295;45.534;20.034;2023-04-24T12:09:26;18.77;;;15.70;;
53401;SDS011;39295;45.534;20.034;2023-04-24T12:11:54;20.48;;;17.27;;
53401;SDS011;39295;45.534;20.034;2023-04-24T12:14:22;22.88;;;17.45;;
53401;SDS011;39295;45.534;20.034;2023-04-24T12:16:48;23.52;;;17.50;;
53401;SDS011;39295;45.534;20.034;2023-04-24T12:19:21;22.83;;;18.63;;
53401;SDS011;39295;45.534;20.034;2023-04-24T12:22:00;21.27;;;16.63;;
53401;SDS011;39295;45.534;20.034;2023-04-24T12:24:26;21.80;;;18.67;;
53401;SDS011;39295;45.534;20.034;2023-04-24T12:26:52;50.58;;;32.95;;
53401;SDS011;39295;45.534;20.034;2023-04-24T12:29:20;56.35;;;36.15;;
53401;SDS011;39295;45.534;20.034;2023-04-24T12:31:46;43.67;;;30.88;;
53401;SDS011;39295;45.534;20.034;2023-04-24T12:34:22;27.10;;;22.05;;
53401;SDS011;39295;45.534;20.034;2023-04-24T12:36:48;30.20;;;24.60;;
53401;SDS011;39295;45.534;20.034;2023-04-24T12:39:15;25.38;;;19.60;;
53401;SDS011;39295;45.534;20.034;2023-04-24T12:41:57;23.42;;;18.45;;
53401;SDS011;39295;45.534;20.034;2023-04-24T12:44:31;22.10;;;19.55;;
53401;SDS011;39295;45.534;20.034;2023-04-24T12:46:59;20.35;;;17.33;;
53401;SDS011;39295;45.534;20.034;2023-04-24T12:49:25;22.58;;;17.45;;
53401;SDS011;39295;45.534;20.034;2023-04-24T12:51:51;19.70;;;17.13;;
53401;SDS011;39295;45.534;20.034;2023-04-24T12:54:17;22.05;;;18.42;;
53401;SDS011;39295;45.534;20.034;2023-04-24T12:56:44;21.10;;;16.90;;
53401;SDS011;39295;45.534;20.034;2023-04-24T12:59:10;22.00;;;16.77;;
53401;SDS011;39295;45.534;20.034;2023-04-24T13:01:37;19.73;;;16.73;;
53401;SDS011;39295;45.534;20.034;2023-04-24T13:04:04;17.80;;;15.75;;
53401;SDS011;39295;45.534;20.034;2023-04-24T13:06:30;18.17;;;16.30;;
53401;SDS011;39295;45.534;20.034;2023-04-24T13:08:57;19.25;;;16.80;;
53401;SDS011;39295;45.534;20.034;2023-04-24T13:11:23;21.73;;;17.00;;
53401;SDS011;39295;45.534;20.034;2023-04-24T13:13:49;21.00;;;16.65;;
53401;SDS011;39295;45.534;20.034;2023-04-24T13:16:16;21.33;;;18.42;;
53401;SDS011;39295;45.534;20.034;2023-04-24T13:18:42;21.25;;;17.10;;
53401;SDS011;39295;45.534;20.034;2023-04-24T13:21:08;20.42;;;16.77;;
53401;SDS011;39295;45.534;20.034;2023-04-24T13:23:34;17.30;;;15.45;;
53401;SDS011;39295;45.534;20.034;2023-04-24T13:26:00;19.48;;;15.82;;
53401;SDS011;39295;45.534;20.034;2023-04-24T13:28:27;19.80;;;17.20;;
53401;SDS011;39295;45.534;20.034;2023-04-24T13:30:54;23.15;;;18.30;;
53401;SDS011;39295;45.534;20.034;2023-04-24T13:33:20;20.85;;;17.13;;
53401;SDS011;39295;45.534;20.034;2023-04-24T13:35:46;21.70;;;18.83;;
53401;SDS011;39295;45.534;20.034;2023-04-24T13:38:12;20.85;;;16.45;;
53401;SDS011;39295;45.534;20.034;2023-04-24T13:40:38;21.98;;;18.10;;
53401;SDS011;39295;45.534;20.034;2023-04-24T13:43:05;19.77;;;17.70;;
53401;SDS011;39295;45.534;20.034;2023-04-24T13:45:31;20.55;;;16.77;;
53401;SDS011;39295;45.534;20.034;2023-04-24T13:47:57;21.00;;;17.70;;
53401;SDS011;39295;45.534;20.034;2023-04-24T13:50:23;24.08;;;19.73;;
53401;SDS011;39295;45.534;20.034;2023-04-24T13:52:49;21.58;;;18.38;;
53401;SDS011;39295;45.534;20.034;2023-04-24T13:55:15;22.05;;;19.10;;
53401;SDS011;39295;45.534;20.034;2023-04-24T13:57:41;21.92;;;18.73;;
53401;SDS011;39295;45.534;20.034;2023-04-24T14:00:07;22.25;;;19.25;;
53401;SDS011;39295;45.534;20.034;2023-04-24T14:02:35;25.20;;;19.77;;
53401;SDS011;39295;45.534;20.034;2023-04-24T14:05:02;24.77;;;20.23;;
53401;SDS011;39295;45.534;20.034;2023-04-24T14:07:30;27.55;;;21.38;;
53401;SDS011;39295;45.534;20.034;2023-04-24T14:09:56;24.67;;;19.40;;
53401;SDS011;39295;45.534;20.034;2023-04-24T14:12:23;27.02;;;21.27;;
53401;SDS011;39295;45.534;20.034;2023-04-24T14:14:49;26.45;;;21.63;;
53401;SDS011;39295;45.534;20.034;2023-04-24T14:17:15;24.75;;;21.45;;
53401;SDS011;39295;45.534;20.034;2023-04-24T14:19:41;32.17;;;22.95;;
53401;SDS011;39295;45.534;20.034;2023-04-24T14:22:07;36.03;;;24.00;;
53401;SDS011;39295;45.534;20.034;2023-04-24T14:24:33;29.98;;;23.33;;
53401;SDS011;39295;45.534;20.034;2023-04-24T14:26:59;25.58;;;21.35;;
53401;SDS011;39295;45.534;20.034;2023-04-24T14:29:25;25.60;;;21.83;;
53401;SDS011;39295;45.534;20.034;2023-04-24T14:31:51;29.52;;;23.83;;
53401;SDS011;39295;45.534;20.034;2023-04-24T14:34:17;32.67;;;25.88;;
53401;SDS011;39295;45.534;20.034;2023-04-24T14:36:44;31.42;;;24.88;;
53401;SDS011;39295;45.534;20.034;2023-04-24T14:39:10;34.45;;;25.75;;
53401;SDS011;39295;45.534;20.034;2023-04-24T14:41:37;33.75;;;24.40;;
53401;SDS011;39295;45.534;20.034;2023-04-24T14:44:04;29.42;;;23.40;;
53401;SDS011;39295;45.534;20.034;2023-04-24T14:46:30;29.77;;;23.75;;
53401;SDS011;39295;45.534;20.034;2023-04-24T14:48:57;28.38;;;24.10;;
53401;SDS011;39295;45.534;20.034;2023-04-24T14:51:23;28.48;;;24.27;;
53401;SDS011;39295;45.534;20.034;2023-04-24T14:53:50;26.65;;;23.77;;
53401;SDS011;39295;45.534;20.034;2023-04-24T14:56:16;28.48;;;21.80;;
53401;SDS011;39295;45.534;20.034;2023-04-24T14:58:42;25.50;;;20.95;;
53401;SDS011;39295;45.534;20.034;2023-04-24T15:01:09;35.05;;;23.15;;
53401;SDS011;39295;45.534;20.034;2023-04-24T15:03:35;38.30;;;25.88;;
53401;SDS011;39295;45.534;20.034;2023-04-24T15:06:01;30.48;;;24.02;;
53401;SDS011;39295;45.534;20.034;2023-04-24T15:08:27;27.25;;;22.27;;
53401;SDS011;39295;45.534;20.034;2023-04-24T15:10:53;25.48;;;20.00;;
53401;SDS011;39295;45.534;20.034;2023-04-24T15:13:20;22.35;;;19.95;;